createdAt,value
2017-06-04T00:00:11.685Z,0
2017-06-04T00:00:52.276Z,0
2017-06-04T00:01:32.856Z,0
2017-06-04T00:02:13.442Z,0
2017-06-04T00:02:54.028Z,0
2017-06-04T00:03:34.622Z,0
2017-06-04T00:04:15.185Z,0
2017-06-04T00:04:55.772Z,0
2017-06-04T00:05:36.366Z,0
2017-06-04T00:06:16.959Z,0
2017-06-04T00:06:57.543Z,0
2017-06-04T00:07:38.129Z,0
2017-06-04T00:08:18.720Z,0
2017-06-04T00:08:59.313Z,0
2017-06-04T00:09:39.891Z,0
2017-06-04T00:10:20.499Z,0
2017-06-04T00:11:01.089Z,0
2017-06-04T00:11:41.701Z,0
2017-06-04T00:12:22.291Z,0
2017-06-04T00:13:02.882Z,0
2017-06-04T00:13:43.469Z,0
2017-06-04T00:14:24.058Z,0
2017-06-04T00:15:04.675Z,0
2017-06-04T00:15:45.270Z,0
2017-06-04T00:16:25.862Z,0
2017-06-04T00:17:06.504Z,0
2017-06-04T00:17:47.115Z,0
2017-06-04T00:18:27.724Z,0
2017-06-04T00:19:08.287Z,0
2017-06-04T00:19:48.864Z,0
2017-06-04T00:20:29.461Z,0
2017-06-04T00:21:10.047Z,0
2017-06-04T00:21:50.630Z,0
2017-06-04T00:22:31.218Z,0
2017-06-04T00:23:11.798Z,0
2017-06-04T00:23:52.409Z,0
2017-06-04T00:24:33.102Z,0
2017-06-04T00:25:13.741Z,0
2017-06-04T00:25:54.351Z,0
2017-06-04T00:26:34.950Z,0
2017-06-04T00:27:15.537Z,0
2017-06-04T00:27:56.133Z,0
2017-06-04T00:28:36.716Z,0
2017-06-04T00:29:17.300Z,0
2017-06-04T00:29:57.905Z,0
2017-06-04T00:30:38.498Z,0
2017-06-04T00:31:19.179Z,0
2017-06-04T00:31:59.806Z,0
2017-06-04T00:32:40.399Z,0
2017-06-04T00:33:21.066Z,0
2017-06-04T00:34:01.761Z,0
2017-06-04T00:34:42.359Z,0
2017-06-04T00:35:22.948Z,0
2017-06-04T00:36:03.620Z,0
2017-06-04T00:36:44.206Z,0
2017-06-04T00:37:24.788Z,0
2017-06-04T00:38:05.391Z,0
2017-06-04T00:38:45.990Z,0
2017-06-04T00:39:26.592Z,0
2017-06-04T00:40:07.181Z,0
2017-06-04T00:40:47.769Z,0
2017-06-04T00:41:28.359Z,0
2017-06-04T00:42:08.946Z,0
2017-06-04T00:42:49.526Z,0
2017-06-04T00:43:30.136Z,0
2017-06-04T00:44:10.731Z,0
2017-06-04T00:44:51.319Z,0
2017-06-04T00:45:31.905Z,0
2017-06-04T00:46:12.484Z,0
2017-06-04T00:46:53.088Z,0
2017-06-04T00:47:40.221Z,0
2017-06-04T00:48:20.813Z,0
2017-06-04T00:49:01.429Z,0
2017-06-04T00:49:42.080Z,0
2017-06-04T00:50:22.666Z,0
2017-06-04T00:51:03.251Z,0
2017-06-04T00:51:43.832Z,0
2017-06-04T00:52:24.403Z,0
2017-06-04T00:53:04.994Z,0
2017-06-04T00:53:45.589Z,0
2017-06-04T00:54:26.178Z,0
2017-06-04T00:55:06.757Z,0
2017-06-04T00:55:47.344Z,0
2017-06-04T00:56:27.928Z,0
2017-06-04T00:57:08.514Z,0
2017-06-04T00:57:49.099Z,0
2017-06-04T00:58:29.699Z,0
2017-06-04T00:59:10.284Z,0
2017-06-04T00:59:50.866Z,0
2017-06-04T01:00:31.458Z,0
2017-06-04T01:01:12.051Z,0
2017-06-04T01:01:52.637Z,0
2017-06-04T01:02:33.237Z,0
2017-06-04T01:03:13.817Z,0
2017-06-04T01:03:54.433Z,0
2017-06-04T01:04:35.017Z,0
2017-06-04T01:05:15.588Z,0
2017-06-04T01:05:56.181Z,0
2017-06-04T01:06:36.764Z,0
2017-06-04T01:07:17.349Z,0
2017-06-04T01:07:57.939Z,0
2017-06-04T01:08:38.550Z,0
2017-06-04T01:09:19.138Z,0
2017-06-04T01:09:59.726Z,0
2017-06-04T01:10:40.307Z,0
2017-06-04T01:11:20.896Z,0
2017-06-04T01:12:01.489Z,0
2017-06-04T01:12:42.077Z,0
2017-06-04T01:13:22.651Z,0
2017-06-04T01:14:03.239Z,0
2017-06-04T01:14:43.825Z,0
2017-06-04T01:15:24.407Z,0
2017-06-04T01:16:04.999Z,0
2017-06-04T01:16:45.585Z,0
2017-06-04T01:17:26.163Z,0
2017-06-04T01:18:06.772Z,0
2017-06-04T01:18:47.360Z,0
2017-06-04T01:19:27.947Z,0
2017-06-04T01:20:08.535Z,0
2017-06-04T01:20:49.124Z,0
2017-06-04T01:21:29.729Z,0
2017-06-04T01:22:10.302Z,0
2017-06-04T01:22:50.894Z,0
2017-06-04T01:23:31.472Z,0
2017-06-04T01:24:12.066Z,0
2017-06-04T01:24:52.661Z,0
2017-06-04T01:25:33.267Z,0
2017-06-04T01:26:13.908Z,0
2017-06-04T01:26:54.455Z,0
2017-06-04T01:27:35.057Z,0
2017-06-04T01:28:15.642Z,0
2017-06-04T01:28:56.230Z,0
2017-06-04T01:29:36.815Z,0
2017-06-04T01:30:17.407Z,0
2017-06-04T01:30:57.991Z,0
2017-06-04T01:31:38.579Z,0
2017-06-04T01:32:19.165Z,0
2017-06-04T01:32:59.778Z,0
2017-06-04T01:33:40.359Z,0
2017-06-04T01:34:20.945Z,0
2017-06-04T01:35:01.539Z,0
2017-06-04T01:35:42.139Z,0
2017-06-04T01:36:22.725Z,0
2017-06-04T01:37:03.319Z,0
2017-06-04T01:37:43.906Z,0
2017-06-04T01:38:24.474Z,0
2017-06-04T01:39:05.064Z,0
2017-06-04T01:39:45.648Z,0
2017-06-04T01:40:26.235Z,0
2017-06-04T01:41:06.817Z,0
2017-06-04T01:41:47.414Z,0
2017-06-04T01:42:27.989Z,0
2017-06-04T01:43:08.572Z,0
2017-06-04T01:43:49.170Z,0
2017-06-04T01:44:29.751Z,0
2017-06-04T01:45:10.339Z,0
2017-06-04T01:45:50.934Z,0
2017-06-04T01:46:31.522Z,0
2017-06-04T01:47:12.129Z,0
2017-06-04T01:47:52.715Z,0
2017-06-04T01:48:33.371Z,0
2017-06-04T01:49:13.960Z,0
2017-06-04T01:49:54.603Z,0
2017-06-04T01:50:35.175Z,0
2017-06-04T01:51:15.771Z,0
2017-06-04T01:51:56.355Z,0
2017-06-04T01:52:36.940Z,0
2017-06-04T01:53:17.547Z,0
2017-06-04T01:53:58.129Z,0
2017-06-04T01:54:38.704Z,0
2017-06-04T01:55:19.304Z,0
2017-06-04T01:55:59.884Z,0
2017-06-04T01:56:40.476Z,0
2017-06-04T01:57:21.066Z,0
2017-06-04T01:58:01.658Z,0
2017-06-04T01:58:42.247Z,0
2017-06-04T01:59:22.857Z,0
2017-06-04T02:00:03.503Z,0
2017-06-04T02:00:44.087Z,0
2017-06-04T02:01:24.666Z,0
2017-06-04T02:02:05.253Z,0
2017-06-04T02:02:45.851Z,0
2017-06-04T02:03:26.453Z,0
2017-06-04T02:04:07.039Z,0
2017-06-04T02:04:47.663Z,0
2017-06-04T02:05:28.255Z,0
2017-06-04T02:06:08.852Z,0
2017-06-04T02:06:49.465Z,0
2017-06-04T02:07:30.075Z,0
2017-06-04T02:08:10.678Z,0
2017-06-04T02:08:51.266Z,0
2017-06-04T02:09:31.842Z,0
2017-06-04T02:10:12.434Z,0
2017-06-04T02:10:53.033Z,0
2017-06-04T02:11:33.646Z,0
2017-06-04T02:12:14.244Z,0
2017-06-04T02:12:54.824Z,0
2017-06-04T02:13:35.416Z,0
2017-06-04T02:14:16.009Z,0
2017-06-04T02:14:56.592Z,0
2017-06-04T02:15:37.187Z,0
2017-06-04T02:16:17.777Z,0
2017-06-04T02:16:58.390Z,0
2017-06-04T02:17:39.018Z,0
2017-06-04T02:18:19.595Z,0
2017-06-04T02:19:00.183Z,0
2017-06-04T02:19:40.800Z,0
2017-06-04T02:20:21.396Z,0
2017-06-04T02:21:01.979Z,0
2017-06-04T02:21:42.567Z,0
2017-06-04T02:22:23.150Z,0
2017-06-04T02:23:03.749Z,4
2017-06-04T02:23:44.341Z,4
2017-06-04T02:24:24.928Z,4
2017-06-04T02:25:05.512Z,4
2017-06-04T02:25:46.097Z,4
2017-06-04T02:26:26.671Z,0
2017-06-04T02:27:07.283Z,0
2017-06-04T02:27:47.884Z,4
2017-06-04T02:28:28.480Z,4
2017-06-04T02:29:09.063Z,4
2017-06-04T02:29:49.662Z,4
2017-06-04T02:30:30.251Z,8
2017-06-04T02:31:10.852Z,4
2017-06-04T02:31:51.450Z,4
2017-06-04T02:32:32.057Z,8
2017-06-04T02:33:12.651Z,8
2017-06-04T02:33:53.287Z,8
2017-06-04T02:34:33.878Z,8
2017-06-04T02:35:14.465Z,8
2017-06-04T02:35:55.061Z,12
2017-06-04T02:36:35.655Z,8
2017-06-04T02:37:16.239Z,12
2017-06-04T02:37:56.831Z,12
2017-06-04T02:38:37.434Z,16
2017-06-04T02:39:18.015Z,16
2017-06-04T02:39:58.615Z,16
2017-06-04T02:40:39.212Z,16
2017-06-04T02:41:19.797Z,20
2017-06-04T02:42:00.379Z,16
2017-06-04T02:42:40.974Z,20
2017-06-04T02:43:21.579Z,20
2017-06-04T02:44:02.163Z,24
2017-06-04T02:44:42.756Z,24
2017-06-04T02:45:23.343Z,28
2017-06-04T02:46:03.936Z,28
2017-06-04T02:46:44.523Z,28
2017-06-04T02:47:25.155Z,32
2017-06-04T02:48:05.738Z,28
2017-06-04T02:48:46.329Z,32
2017-06-04T02:49:26.911Z,36
2017-06-04T02:50:07.516Z,32
2017-06-04T02:50:48.113Z,32
2017-06-04T02:51:28.714Z,36
2017-06-04T02:52:09.296Z,36
2017-06-04T02:52:50.014Z,36
2017-06-04T02:53:30.628Z,36
2017-06-04T02:54:11.224Z,40
2017-06-04T02:54:51.813Z,40
2017-06-04T02:55:32.395Z,44
2017-06-04T02:56:12.976Z,44
2017-06-04T02:56:53.565Z,48
2017-06-04T02:57:34.151Z,48
2017-06-04T02:58:14.738Z,52
2017-06-04T02:58:55.336Z,52
2017-06-04T02:59:35.939Z,56
2017-06-04T03:00:16.591Z,60
2017-06-04T03:00:57.175Z,64
2017-06-04T03:01:37.756Z,64
2017-06-04T03:02:18.343Z,68
2017-06-04T03:02:58.941Z,72
2017-06-04T03:03:39.580Z,72
2017-06-04T03:04:20.160Z,76
2017-06-04T03:05:00.756Z,80
2017-06-04T03:05:41.352Z,84
2017-06-04T03:06:21.944Z,92
2017-06-04T03:07:02.552Z,92
2017-06-04T03:07:43.156Z,100
2017-06-04T03:08:23.754Z,104
2017-06-04T03:09:04.369Z,108
2017-06-04T03:09:44.971Z,112
2017-06-04T03:10:25.572Z,120
2017-06-04T03:11:06.154Z,124
2017-06-04T03:11:46.732Z,128
2017-06-04T03:12:27.323Z,132
2017-06-04T03:13:07.931Z,136
2017-06-04T03:13:48.711Z,136
2017-06-04T03:14:29.297Z,136
2017-06-04T03:15:09.892Z,140
2017-06-04T03:15:50.486Z,140
2017-06-04T03:16:31.078Z,144
2017-06-04T03:17:11.669Z,144
2017-06-04T03:17:52.291Z,144
2017-06-04T03:18:32.939Z,144
2017-06-04T03:19:13.582Z,148
2017-06-04T03:19:54.166Z,148
2017-06-04T03:20:34.797Z,152
2017-06-04T03:21:15.370Z,156
2017-06-04T03:21:55.960Z,156
2017-06-04T03:22:36.544Z,160
2017-06-04T03:23:17.131Z,168
2017-06-04T03:23:57.723Z,176
2017-06-04T03:24:38.307Z,180
2017-06-04T03:25:18.883Z,184
2017-06-04T03:25:59.474Z,188
2017-06-04T03:26:40.061Z,200
2017-06-04T03:27:20.643Z,204
2017-06-04T03:28:01.226Z,208
2017-06-04T03:28:41.821Z,216
2017-06-04T03:29:22.431Z,224
2017-06-04T03:30:03.019Z,228
2017-06-04T03:30:43.614Z,232
2017-06-04T03:31:24.186Z,236
2017-06-04T03:32:04.871Z,240
2017-06-04T03:32:45.487Z,240
2017-06-04T03:33:26.079Z,244
2017-06-04T03:34:06.662Z,244
2017-06-04T03:34:47.244Z,248
2017-06-04T03:35:27.831Z,248
2017-06-04T03:36:08.425Z,252
2017-06-04T03:36:49.016Z,256
2017-06-04T03:37:29.607Z,260
2017-06-04T03:38:10.224Z,268
2017-06-04T03:38:50.832Z,272
2017-06-04T03:39:31.434Z,280
2017-06-04T03:40:12.051Z,288
2017-06-04T03:40:52.655Z,292
2017-06-04T03:41:33.252Z,304
2017-06-04T03:42:13.859Z,304
2017-06-04T03:42:54.479Z,312
2017-06-04T03:43:35.059Z,316
2017-06-04T03:44:15.657Z,320
2017-06-04T03:44:56.247Z,332
2017-06-04T03:45:36.882Z,340
2017-06-04T03:46:17.472Z,348
2017-06-04T03:46:58.148Z,360
2017-06-04T03:47:38.788Z,368
2017-06-04T03:48:19.387Z,380
2017-06-04T03:49:01.894Z,392
2017-06-04T03:49:42.827Z,400
2017-06-04T03:50:25.217Z,416
2017-06-04T03:51:08.080Z,428
2017-06-04T03:51:50.976Z,444
2017-06-04T03:52:34.359Z,456
2017-06-04T03:53:18.135Z,476
2017-06-04T03:54:02.766Z,492
2017-06-04T03:55:09.014Z,524
2017-06-04T03:55:49.595Z,540
2017-06-04T03:56:30.203Z,556
2017-06-04T03:57:10.798Z,568
2017-06-04T03:57:51.419Z,580
2017-06-04T03:58:32.029Z,588
2017-06-04T03:59:12.658Z,596
2017-06-04T03:59:53.266Z,604
2017-06-04T04:00:33.874Z,612
2017-06-04T04:01:14.453Z,612
2017-06-04T04:01:55.040Z,608
2017-06-04T04:02:35.624Z,600
2017-06-04T04:03:16.216Z,592
2017-06-04T04:03:56.805Z,580
2017-06-04T04:04:37.459Z,572
2017-06-04T04:05:18.076Z,572
2017-06-04T04:05:58.669Z,576
2017-06-04T04:06:39.255Z,588
2017-06-04T04:07:19.881Z,592
2017-06-04T04:08:00.482Z,604
2017-06-04T04:08:41.095Z,612
2017-06-04T04:09:21.688Z,616
2017-06-04T04:10:02.268Z,620
2017-06-04T04:10:42.872Z,624
2017-06-04T04:11:23.450Z,628
2017-06-04T04:12:04.050Z,640
2017-06-04T04:12:44.690Z,648
2017-06-04T04:13:25.303Z,664
2017-06-04T04:14:05.897Z,680
2017-06-04T04:14:46.509Z,688
2017-06-04T04:15:27.120Z,700
2017-06-04T04:16:07.713Z,712
2017-06-04T04:16:48.331Z,716
2017-06-04T04:17:28.917Z,716
2017-06-04T04:18:09.566Z,724
2017-06-04T04:18:50.153Z,728
2017-06-04T04:19:30.804Z,736
2017-06-04T04:20:11.409Z,744
2017-06-04T04:20:52.033Z,756
2017-06-04T04:21:32.639Z,768
2017-06-04T04:22:13.264Z,776
2017-06-04T04:22:53.855Z,784
2017-06-04T04:23:34.447Z,788
2017-06-04T04:24:15.071Z,792
2017-06-04T04:24:55.672Z,796
2017-06-04T04:25:36.264Z,796
2017-06-04T04:26:16.856Z,792
2017-06-04T04:26:57.457Z,788
2017-06-04T04:27:38.041Z,796
2017-06-04T04:28:18.645Z,808
2017-06-04T04:28:59.237Z,828
2017-06-04T04:29:39.820Z,844
2017-06-04T04:30:20.426Z,864
2017-06-04T04:31:01.016Z,880
2017-06-04T04:31:41.610Z,900
2017-06-04T04:32:22.193Z,912
2017-06-04T04:33:02.773Z,912
2017-06-04T04:33:43.371Z,904
2017-06-04T04:34:24.055Z,896
2017-06-04T04:35:04.727Z,880
2017-06-04T04:35:45.327Z,856
2017-06-04T04:36:25.933Z,824
2017-06-04T04:37:06.536Z,784
2017-06-04T04:37:47.138Z,748
2017-06-04T04:38:27.712Z,708
2017-06-04T04:39:08.307Z,668
2017-06-04T04:39:48.917Z,632
2017-06-04T04:40:29.518Z,604
2017-06-04T04:41:10.110Z,576
2017-06-04T04:41:50.702Z,560
2017-06-04T04:42:31.328Z,552
2017-06-04T04:43:11.929Z,548
2017-06-04T04:43:52.533Z,556
2017-06-04T04:44:33.122Z,560
2017-06-04T04:45:13.712Z,564
2017-06-04T04:45:54.309Z,568
2017-06-04T04:46:34.893Z,564
2017-06-04T04:47:15.513Z,564
2017-06-04T04:47:56.099Z,560
2017-06-04T04:48:36.685Z,552
2017-06-04T04:49:17.269Z,544
2017-06-04T04:49:57.864Z,544
2017-06-04T04:50:38.472Z,536
2017-06-04T04:51:19.072Z,536
2017-06-04T04:51:59.669Z,540
2017-06-04T04:52:40.271Z,548
2017-06-04T04:53:20.885Z,556
2017-06-04T04:54:01.486Z,556
2017-06-04T04:54:42.082Z,560
2017-06-04T04:55:22.690Z,564
2017-06-04T04:56:03.280Z,564
2017-06-04T04:56:43.862Z,564
2017-06-04T04:57:24.448Z,572
2017-06-04T04:58:05.045Z,576
2017-06-04T04:58:45.644Z,584
2017-06-04T04:59:26.264Z,588
2017-06-04T05:00:06.914Z,592
2017-06-04T05:00:47.576Z,596
2017-06-04T05:01:28.169Z,600
2017-06-04T05:02:08.955Z,608
2017-06-04T05:02:49.621Z,608
2017-06-04T05:03:30.210Z,608
2017-06-04T05:04:10.799Z,612
2017-06-04T05:04:51.418Z,612
2017-06-04T05:05:32.146Z,612
2017-06-04T05:06:12.875Z,612
2017-06-04T05:06:53.534Z,616
2017-06-04T05:07:34.138Z,628
2017-06-04T05:08:14.868Z,640
2017-06-04T05:08:55.471Z,648
2017-06-04T05:09:36.085Z,664
2017-06-04T05:10:16.692Z,672
2017-06-04T05:10:57.289Z,688
2017-06-04T05:11:37.932Z,708
2017-06-04T05:12:18.563Z,736
2017-06-04T05:12:59.212Z,768
2017-06-04T05:13:39.833Z,808
2017-06-04T05:14:20.445Z,848
2017-06-04T05:15:01.064Z,888
2017-06-04T05:15:41.723Z,920
2017-06-04T05:16:22.403Z,944
2017-06-04T05:17:02.993Z,956
2017-06-04T05:17:43.581Z,956
2017-06-04T05:18:24.169Z,948
2017-06-04T05:19:04.777Z,936
2017-06-04T05:19:45.366Z,928
2017-06-04T05:20:25.952Z,916
2017-06-04T05:21:06.556Z,904
2017-06-04T05:21:47.145Z,888
2017-06-04T05:22:27.743Z,880
2017-06-04T05:23:08.349Z,868
2017-06-04T05:23:48.946Z,860
2017-06-04T05:24:29.565Z,852
2017-06-04T05:25:10.156Z,844
2017-06-04T05:25:50.734Z,840
2017-06-04T05:26:31.349Z,828
2017-06-04T05:27:11.948Z,820
2017-06-04T05:27:52.617Z,808
2017-06-04T05:28:33.199Z,796
2017-06-04T05:29:13.792Z,792
2017-06-04T05:29:54.385Z,796
2017-06-04T05:30:35.110Z,804
2017-06-04T05:31:15.719Z,812
2017-06-04T05:31:56.341Z,816
2017-06-04T05:32:36.957Z,816
2017-06-04T05:33:17.547Z,816
2017-06-04T05:33:58.140Z,828
2017-06-04T05:34:38.806Z,852
2017-06-04T05:35:19.386Z,876
2017-06-04T05:35:59.969Z,896
2017-06-04T05:36:40.570Z,904
2017-06-04T05:37:21.138Z,900
2017-06-04T05:38:01.721Z,884
2017-06-04T05:38:42.331Z,868
2017-06-04T05:39:22.949Z,864
2017-06-04T05:40:03.521Z,876
2017-06-04T05:40:44.112Z,896
2017-06-04T05:41:24.724Z,928
2017-06-04T05:42:05.322Z,968
2017-06-04T05:42:45.947Z,1012
2017-06-04T05:43:26.545Z,1052
2017-06-04T05:44:07.153Z,1092
2017-06-04T05:44:47.745Z,1136
2017-06-04T05:45:28.325Z,1184
2017-06-04T05:46:08.920Z,1232
2017-06-04T05:46:49.517Z,1272
2017-06-04T05:47:30.129Z,1296
2017-06-04T05:48:10.765Z,1312
2017-06-04T05:48:51.386Z,1308
2017-06-04T05:49:31.983Z,1304
2017-06-04T05:50:12.586Z,1296
2017-06-04T05:50:53.176Z,1296
2017-06-04T05:51:33.786Z,1304
2017-06-04T05:52:14.384Z,1320
2017-06-04T05:52:54.991Z,1344
2017-06-04T05:53:35.644Z,1380
2017-06-04T05:54:16.258Z,1412
2017-06-04T05:54:56.895Z,1432
2017-06-04T05:55:37.505Z,1444
2017-06-04T05:56:18.096Z,1436
2017-06-04T05:56:58.727Z,1420
2017-06-04T05:57:39.383Z,1400
2017-06-04T05:58:19.977Z,1376
2017-06-04T05:59:00.600Z,1364
2017-06-04T05:59:41.180Z,1352
2017-06-04T06:00:21.913Z,1332
2017-06-04T06:01:02.495Z,1312
2017-06-04T06:01:43.088Z,1300
2017-06-04T06:02:23.702Z,1280
2017-06-04T06:03:06.382Z,1264
2017-06-04T06:03:47.087Z,1248
2017-06-04T06:04:27.684Z,1208
2017-06-04T06:05:08.339Z,1156
2017-06-04T06:05:49.163Z,1104
2017-06-04T06:06:29.759Z,1056
2017-06-04T06:07:10.340Z,1012
2017-06-04T06:07:50.952Z,992
2017-06-04T06:08:41.715Z,992
2017-06-04T06:09:22.307Z,1012
2017-06-04T06:10:02.904Z,1044
2017-06-04T06:10:44.686Z,1072
2017-06-04T06:11:26.504Z,1108
2017-06-04T06:12:07.191Z,1152
2017-06-04T06:12:49.457Z,1188
2017-06-04T06:13:30.056Z,1224
2017-06-04T06:14:10.640Z,1256
2017-06-04T06:14:51.232Z,1284
2017-06-04T06:15:32.409Z,1296
2017-06-04T06:16:13.101Z,1300
2017-06-04T06:16:53.926Z,1296
2017-06-04T06:17:34.531Z,1288
2017-06-04T06:18:15.143Z,1276
2017-06-04T06:18:55.810Z,1272
2017-06-04T06:19:36.394Z,1264
2017-06-04T06:20:17.874Z,1264
2017-06-04T06:20:58.496Z,1252
2017-06-04T06:21:39.127Z,1236
2017-06-04T06:22:20.203Z,1208
2017-06-04T06:23:00.871Z,1180
2017-06-04T06:23:41.464Z,1164
2017-06-04T06:24:23.423Z,1136
2017-06-04T06:25:27.065Z,1108
2017-06-04T06:29:35.266Z,1052
2017-06-04T06:30:15.875Z,1044
2017-06-04T06:30:56.472Z,1036
2017-06-04T06:31:37.083Z,1036
2017-06-04T06:32:17.763Z,1032
2017-06-04T06:32:58.348Z,1036
2017-06-04T06:33:38.953Z,1036
2017-06-04T06:34:19.538Z,1040
2017-06-04T06:35:00.135Z,1040
2017-06-04T06:35:40.717Z,1036
2017-06-04T06:36:21.310Z,1032
2017-06-04T06:37:01.918Z,1036
2017-06-04T06:37:42.579Z,1040
2017-06-04T06:38:23.179Z,1044
2017-06-04T06:39:03.764Z,1056
2017-06-04T06:39:44.365Z,1072
2017-06-04T06:40:24.962Z,1084
2017-06-04T06:41:05.553Z,1108
2017-06-04T06:41:46.149Z,1116
2017-06-04T06:42:26.734Z,1144
2017-06-04T06:43:07.375Z,1176
2017-06-04T06:43:48.028Z,1200
2017-06-04T06:44:28.655Z,1220
2017-06-04T06:45:09.244Z,1240
2017-06-04T06:45:49.860Z,1268
2017-06-04T06:46:31.015Z,1272
2017-06-04T06:47:11.598Z,1268
2017-06-04T06:47:52.226Z,1268
2017-06-04T06:48:32.815Z,1252
2017-06-04T06:49:13.394Z,1248
2017-06-04T06:49:53.975Z,1284
2017-06-04T06:50:34.590Z,1284
2017-06-04T06:51:15.274Z,1236
2017-06-04T06:51:55.855Z,1288
2017-06-04T06:52:36.447Z,1316
2017-06-04T06:53:17.063Z,1276
2017-06-04T06:53:57.827Z,1316
2017-06-04T06:54:38.423Z,1224
2017-06-04T06:55:19.033Z,1332
2017-06-04T06:56:07.304Z,1304
2017-06-04T06:56:55.088Z,1372
2017-06-04T06:57:35.708Z,1372
2017-06-04T06:58:16.331Z,1348
2017-06-04T06:58:56.920Z,1360
2017-06-04T06:59:37.536Z,1452
2017-06-04T07:00:18.165Z,1476
2017-06-04T07:00:58.809Z,1536
2017-06-04T07:01:39.522Z,1500
2017-06-04T07:02:21.940Z,1612
2017-06-04T07:03:21.926Z,1708
2017-06-04T07:04:03.552Z,1688
2017-06-04T07:04:44.158Z,1752
2017-06-04T07:05:26.385Z,1816
2017-06-04T07:06:14.018Z,1820
2017-06-04T07:06:55.084Z,1780
2017-06-04T07:07:35.680Z,1740
2017-06-04T07:08:18.928Z,1748
2017-06-04T07:09:04.446Z,1688
2017-06-04T07:09:54.954Z,1640
2017-06-04T07:10:35.581Z,1656
2017-06-04T07:11:17.357Z,1632
2017-06-04T07:11:58.228Z,1548
2017-06-04T07:12:39.344Z,1496
2017-06-04T07:13:20.761Z,1664
2017-06-04T07:14:01.413Z,1724
2017-06-04T07:14:42.000Z,1796
2017-06-04T07:15:22.615Z,1776
2017-06-04T07:16:03.261Z,1896
2017-06-04T07:16:44.069Z,2020
2017-06-04T07:17:24.747Z,2056
2017-06-04T07:18:05.356Z,2064
2017-06-04T07:18:46.038Z,1980
2017-06-04T07:19:26.674Z,1996
2017-06-04T07:20:07.282Z,2032
2017-06-04T07:20:48.021Z,2012
2017-06-04T07:21:28.637Z,1952
2017-06-04T07:22:09.270Z,1988
2017-06-04T07:22:50.078Z,1920
2017-06-04T07:23:31.197Z,1776
2017-06-04T07:24:11.819Z,1764
2017-06-04T07:24:52.424Z,1772
2017-06-04T07:25:33.049Z,1788
2017-06-04T07:26:13.722Z,1836
2017-06-04T07:26:54.377Z,1844
2017-06-04T07:27:34.975Z,1956
2017-06-04T07:28:15.673Z,2056
2017-06-04T07:28:56.372Z,2068
2017-06-04T07:29:37.020Z,2032
2017-06-04T07:30:17.866Z,2000
2017-06-04T07:30:58.601Z,1896
2017-06-04T07:31:39.323Z,1708
2017-06-04T07:32:20.177Z,1604
2017-06-04T07:33:00.988Z,1488
2017-06-04T07:33:41.595Z,1372
2017-06-04T07:34:22.196Z,1228
2017-06-04T07:35:02.882Z,1160
2017-06-04T07:35:43.503Z,1180
2017-06-04T07:36:24.134Z,1252
2017-06-04T07:37:04.742Z,1300
2017-06-04T07:37:45.333Z,1248
2017-06-04T07:38:25.928Z,1192
2017-06-04T07:39:06.525Z,1208
2017-06-04T07:39:52.427Z,1244
2017-06-04T07:40:43.718Z,1212
2017-06-04T07:41:47.315Z,1200
2017-06-04T07:42:28.906Z,1208
2017-06-04T07:43:13.734Z,1308
2017-06-04T07:44:05.379Z,1304
2017-06-04T07:44:46.774Z,1236
2017-06-04T07:45:39.450Z,1260
2017-06-04T07:46:30.864Z,1412
2017-06-04T07:47:48.167Z,1552
2017-06-04T07:48:33.405Z,1468
2017-06-04T07:49:15.892Z,1316
2017-06-04T07:49:56.510Z,1192
2017-06-04T07:50:37.090Z,1176
2017-06-04T07:51:17.756Z,1228
2017-06-04T07:51:58.368Z,1268
2017-06-04T07:52:39.539Z,1184
2017-06-04T07:53:20.116Z,1160
2017-06-04T07:54:00.722Z,1132
2017-06-04T07:54:41.328Z,872
2017-06-04T07:55:21.911Z,700
2017-06-04T07:56:02.494Z,660
2017-06-04T07:56:43.135Z,636
2017-06-04T07:57:23.702Z,720
2017-06-04T07:58:04.310Z,808
2017-06-04T07:58:44.899Z,836
2017-06-04T07:59:25.488Z,880
2017-06-04T08:00:06.081Z,860
2017-06-04T08:00:46.676Z,832
2017-06-04T08:01:27.278Z,892
2017-06-04T08:02:07.866Z,840
2017-06-04T08:02:48.444Z,780
2017-06-04T08:03:29.046Z,820
2017-06-04T08:04:09.631Z,928
2017-06-04T08:04:50.235Z,1204
2017-06-04T08:05:30.859Z,1384
2017-06-04T08:06:11.460Z,1504
2017-06-04T08:06:52.054Z,1616
2017-06-04T08:07:32.644Z,1720
2017-06-04T08:08:13.227Z,1852
2017-06-04T08:08:53.819Z,2000
2017-06-04T08:09:34.460Z,2096
2017-06-04T08:10:15.279Z,2160
2017-06-04T08:10:55.832Z,2180
2017-06-04T08:11:36.431Z,2144
2017-06-04T08:12:17.015Z,2048
2017-06-04T08:12:57.599Z,1880
2017-06-04T08:13:38.184Z,1708
2017-06-04T08:14:18.773Z,1624
2017-06-04T08:14:59.387Z,1588
2017-06-04T08:15:39.979Z,1556
2017-06-04T08:16:20.619Z,1536
2017-06-04T08:17:01.199Z,1528
2017-06-04T08:17:41.796Z,1524
2017-06-04T08:18:22.421Z,1564
2017-06-04T08:19:03.027Z,1648
2017-06-04T08:19:43.721Z,1800
2017-06-04T08:20:24.335Z,1968
2017-06-04T08:21:04.926Z,2072
2017-06-04T08:21:45.545Z,2132
2017-06-04T08:22:26.127Z,2196
2017-06-04T08:23:06.718Z,2280
2017-06-04T08:23:47.305Z,2360
2017-06-04T08:24:27.889Z,2432
2017-06-04T08:25:08.479Z,2528
2017-06-04T08:25:49.101Z,2612
2017-06-04T08:26:29.715Z,2672
2017-06-04T08:27:10.316Z,2720
2017-06-04T08:27:50.926Z,2736
2017-06-04T08:28:31.486Z,2840
2017-06-04T08:29:12.070Z,2832
2017-06-04T08:29:52.663Z,3052
2017-06-04T08:30:33.245Z,3140
2017-06-04T08:31:13.839Z,3200
2017-06-04T08:31:54.413Z,3288
2017-06-04T08:32:34.997Z,3128
2017-06-04T08:33:15.585Z,3288
2017-06-04T08:33:56.207Z,3372
2017-06-04T08:34:36.787Z,3372
2017-06-04T08:35:17.378Z,3240
2017-06-04T08:35:57.979Z,3276
2017-06-04T08:36:38.568Z,3308
2017-06-04T08:37:19.162Z,3328
2017-06-04T08:37:59.743Z,3504
2017-06-04T08:38:40.337Z,3512
2017-06-04T08:39:20.921Z,3604
2017-06-04T08:40:01.508Z,3600
2017-06-04T08:40:42.093Z,3660
2017-06-04T08:41:22.693Z,3624
2017-06-04T08:42:03.284Z,3528
2017-06-04T08:42:43.873Z,3664
2017-06-04T08:43:24.452Z,3400
2017-06-04T08:44:05.043Z,3172
2017-06-04T08:44:45.654Z,3024
2017-06-04T08:45:26.247Z,2880
2017-06-04T08:46:06.821Z,2776
2017-06-04T08:46:47.399Z,3132
2017-06-04T08:47:28.022Z,3188
2017-06-04T08:48:08.608Z,3136
2017-06-04T08:48:49.196Z,3048
2017-06-04T08:49:29.786Z,3236
2017-06-04T08:50:10.393Z,3116
2017-06-04T08:50:51.238Z,3364
2017-06-04T08:51:31.818Z,3552
2017-06-04T08:52:12.399Z,3612
2017-06-04T08:52:53.149Z,3588
2017-06-04T08:53:33.657Z,3588
2017-06-04T08:54:14.270Z,3420
2017-06-04T08:54:54.861Z,3212
2017-06-04T08:55:35.464Z,3020
2017-06-04T08:56:16.063Z,2676
2017-06-04T08:56:56.657Z,2732
2017-06-04T08:57:37.278Z,2764
2017-06-04T08:58:18.082Z,2732
2017-06-04T08:58:58.729Z,2752
2017-06-04T08:59:39.427Z,2724
2017-06-04T09:00:20.389Z,2568
2017-06-04T09:01:01.341Z,2404
2017-06-04T09:01:42.015Z,2256
2017-06-04T09:02:22.652Z,2128
2017-06-04T09:03:03.339Z,2060
2017-06-04T09:03:43.932Z,2060
2017-06-04T09:04:24.518Z,2076
2017-06-04T09:05:05.127Z,2008
2017-06-04T09:05:45.743Z,2004
2017-06-04T09:06:26.424Z,1880
2017-06-04T09:07:07.035Z,1840
2017-06-04T09:07:47.629Z,1780
2017-06-04T09:08:28.224Z,1812
2017-06-04T09:09:08.846Z,1768
2017-06-04T09:09:49.448Z,1768
2017-06-04T09:10:30.026Z,1732
2017-06-04T09:11:10.699Z,1816
2017-06-04T09:11:51.292Z,1592
2017-06-04T09:12:31.897Z,1584
2017-06-04T09:13:12.490Z,1548
2017-06-04T09:13:53.101Z,1460
2017-06-04T09:14:33.718Z,1276
2017-06-04T09:15:14.289Z,1268
2017-06-04T09:15:54.897Z,1076
2017-06-04T09:16:35.499Z,920
2017-06-04T09:17:16.103Z,960
2017-06-04T09:17:56.869Z,940
2017-06-04T09:18:37.519Z,656
2017-06-04T09:19:18.128Z,516
2017-06-04T09:19:58.744Z,436
2017-06-04T09:20:39.531Z,468
2017-06-04T09:21:20.135Z,604
2017-06-04T09:22:00.777Z,496
2017-06-04T09:22:41.376Z,448
2017-06-04T09:23:21.966Z,468
2017-06-04T09:24:02.576Z,460
2017-06-04T09:24:43.164Z,512
2017-06-04T09:25:23.792Z,540
2017-06-04T09:26:06.369Z,668
2017-06-04T09:26:52.609Z,780
2017-06-04T09:27:33.641Z,856
2017-06-04T09:28:16.688Z,920
2017-06-04T09:28:57.218Z,892
2017-06-04T09:29:37.819Z,920
2017-06-04T09:30:18.445Z,940
2017-06-04T09:30:59.068Z,1104
2017-06-04T09:31:39.699Z,1176
2017-06-04T09:32:20.390Z,1244